createdAt,value
2019-02-18T00:02:11.977Z,96420.85
2019-02-18T00:05:00.240Z,96429.80
2019-02-18T00:07:48.268Z,96427.64
2019-02-18T00:10:36.202Z,96433.03
2019-02-18T00:13:24.209Z,96434.37
2019-02-18T00:16:12.867Z,96433.53
2019-02-18T00:19:00.986Z,96433.00
2019-02-18T00:21:49.394Z,96434.62
2019-02-18T00:24:37.530Z,96436.52
2019-02-18T00:27:25.735Z,96433.56
2019-02-18T00:30:14.090Z,96440.81
2019-02-18T00:33:01.861Z,96433.02
2019-02-18T00:35:49.967Z,96434.09
2019-02-18T00:38:38.140Z,96434.91
2019-02-18T00:41:26.101Z,96427.37
2019-02-18T00:44:14.489Z,96431.39
2019-02-18T00:47:02.099Z,96429.50
2019-02-18T00:49:50.006Z,96423.36
2019-02-18T00:52:38.159Z,96419.33
2019-02-18T00:55:26.220Z,96423.11
2019-02-18T00:58:14.862Z,96422.05
2019-02-18T01:01:02.816Z,96417.73
2019-02-18T01:03:50.726Z,96409.97
2019-02-18T01:06:38.739Z,96406.74
2019-02-18T01:09:26.765Z,96413.47
2019-02-18T01:12:14.721Z,96415.61
2019-02-18T01:15:02.914Z,96419.64
2019-02-18T01:17:51.179Z,96420.98
2019-02-18T01:20:39.009Z,96422.59
2019-02-18T01:23:26.789Z,96420.95
2019-02-18T01:26:14.610Z,96416.11
2019-02-18T01:29:02.630Z,96419.90
2019-02-18T01:31:50.544Z,96420.18
2019-02-18T01:34:38.637Z,96421.25
2019-02-18T01:37:26.784Z,96415.07
2019-02-18T01:40:15.397Z,96416.92
2019-02-18T01:43:03.430Z,96417.44
2019-02-18T01:45:51.512Z,96421.49
2019-02-18T01:48:39.355Z,96413.98
2019-02-18T01:51:27.276Z,96413.47
2019-02-18T01:54:15.383Z,96414.52
2019-02-18T01:57:03.344Z,96411.56
2019-02-18T01:59:50.891Z,96409.97
2019-02-18T02:02:38.870Z,96409.96
2019-02-18T02:05:26.850Z,96405.14
2019-02-18T02:08:14.379Z,96407.81
2019-02-18T02:11:02.452Z,96403.73
2019-02-18T02:13:50.547Z,96402.92
2019-02-18T02:16:38.833Z,96400.53
2019-02-18T02:19:26.805Z,96393.59
2019-02-18T02:22:15.001Z,96394.11
2019-02-18T02:25:02.888Z,96396.27
2019-02-18T02:27:51.101Z,96394.13
2019-02-18T02:30:39.054Z,96392.79
2019-02-18T02:33:26.967Z,96387.95
2019-02-18T02:36:15.151Z,96385.53
2019-02-18T02:39:03.920Z,96386.60
2019-02-18T02:41:52.052Z,96386.83
2019-02-18T02:44:40.194Z,96392.20
2019-02-18T02:47:28.012Z,96387.58
2019-02-18T02:50:16.047Z,96384.84
2019-02-18T02:55:50.783Z,96376.60
2019-02-18T02:58:38.614Z,96373.68
2019-02-18T03:01:26.697Z,96375.32
2019-02-18T03:04:14.555Z,96378.18
2019-02-18T03:07:02.647Z,96374.95
2019-02-18T03:09:50.602Z,96381.33
2019-02-18T03:12:39.012Z,96373.65
2019-02-18T03:15:27.067Z,96375.98
2019-02-18T03:18:15.308Z,96368.94
2019-02-18T03:21:03.241Z,96369.00
2019-02-18T03:23:51.597Z,96371.00
2019-02-18T03:26:39.531Z,96370.17
2019-02-18T03:30:03.703Z,96366.98
2019-02-18T03:32:55.462Z,96365.87
2019-02-18T03:35:43.332Z,96368.05
2019-02-18T03:38:32.172Z,96367.08
2019-02-18T03:41:20.270Z,96371.97
2019-02-18T03:44:08.411Z,96378.42
2019-02-18T03:46:56.504Z,96374.64
2019-02-18T03:49:44.334Z,96378.93
2019-02-18T03:52:31.989Z,96374.88
2019-02-18T03:55:20.372Z,96374.78
2019-02-18T03:58:08.556Z,96375.06
2019-02-18T04:00:56.160Z,96377.45
2019-02-18T04:03:44.037Z,96382.80
2019-02-18T04:06:31.987Z,96381.70
2019-02-18T04:09:19.897Z,96384.46
2019-02-18T04:12:07.837Z,96382.76
2019-02-18T04:14:56.155Z,96390.08
2019-02-18T04:17:44.518Z,96385.27
2019-02-18T04:20:32.313Z,96382.93
2019-02-18T04:23:20.241Z,96383.98
2019-02-18T04:26:08.112Z,96383.20
2019-02-18T04:28:56.526Z,96382.08
2019-02-18T04:31:44.466Z,96389.59
2019-02-18T04:34:32.163Z,96382.19
2019-02-18T04:37:20.037Z,96387.41
2019-02-18T04:40:08.240Z,96380.41
2019-02-18T04:42:56.345Z,96384.47
2019-02-18T04:45:44.339Z,96384.64
2019-02-18T04:48:32.631Z,96383.08
2019-02-18T04:51:20.789Z,96381.73
2019-02-18T04:54:08.855Z,96373.51
2019-02-18T04:56:56.584Z,96368.45
2019-02-18T04:59:44.754Z,96366.10
2019-02-18T05:02:32.426Z,96358.91
2019-02-18T05:05:20.459Z,96360.20
2019-02-18T05:08:08.265Z,96359.20
2019-02-18T05:10:56.473Z,96360.26
2019-02-18T05:13:45.939Z,96361.09
2019-02-18T05:16:34.123Z,96365.33
2019-02-18T05:19:23.040Z,96373.05
2019-02-18T05:22:11.032Z,96365.70
2019-02-18T05:24:58.924Z,96372.09
2019-02-18T05:27:46.942Z,96371.03
2019-02-18T05:30:35.091Z,96369.13
2019-02-18T05:33:23.268Z,96363.59
2019-02-18T05:36:11.092Z,96362.69
2019-02-18T05:38:59.043Z,96366.03
2019-02-18T05:41:47.230Z,96362.35
2019-02-18T05:44:34.912Z,96369.76
2019-02-18T05:47:23.012Z,96368.88
2019-02-18T05:50:11.110Z,96370.13
2019-02-18T05:52:59.071Z,96373.42
2019-02-18T05:55:46.894Z,96370.38
2019-02-18T05:58:35.075Z,96363.41
2019-02-18T06:01:23.422Z,96366.89
2019-02-18T06:04:11.563Z,96363.01
2019-02-18T06:06:59.180Z,96359.91
2019-02-18T06:09:47.052Z,96357.86
2019-02-18T06:12:35.735Z,96358.92
2019-02-18T06:15:23.968Z,96353.39
2019-02-18T06:18:11.765Z,96352.82
2019-02-18T06:20:59.699Z,96360.36
2019-02-18T06:23:47.876Z,96364.26
2019-02-18T06:26:36.163Z,96361.06
2019-02-18T06:29:24.005Z,96367.72
2019-02-18T06:32:12.200Z,96360.28
2019-02-18T06:34:59.834Z,96363.09
2019-02-18T06:37:47.983Z,96362.53
2019-02-18T06:40:35.894Z,96366.81
2019-02-18T06:43:23.774Z,96364.14
2019-02-18T06:46:37.248Z,96362.39
2019-02-18T06:49:26.612Z,96358.80
2019-02-18T06:52:14.536Z,96363.77
2019-02-18T06:55:02.603Z,96367.95
2019-02-18T06:58:18.526Z,96363.95
2019-02-18T07:01:13.947Z,96366.73
2019-02-18T07:04:20.515Z,96369.06
2019-02-18T07:07:23.345Z,96367.82
2019-02-18T07:10:20.055Z,96364.14
2019-02-18T07:13:07.663Z,96363.64
2019-02-18T07:15:55.802Z,96361.81
2019-02-18T07:18:44.244Z,96368.33
2019-02-18T07:21:32.272Z,96373.81
2019-02-18T07:24:20.194Z,96365.04
2019-02-18T10:32:37.187Z,96252.50
2019-02-18T10:35:26.519Z,96256.53
2019-02-18T10:38:14.287Z,96255.05
2019-02-18T10:41:06.823Z,96248.94
2019-02-18T10:43:54.686Z,96245.77
2019-02-18T10:46:41.850Z,96239.16
2019-02-18T10:49:29.713Z,96245.64
2019-02-18T10:52:17.599Z,96243.42
2019-02-18T10:55:06.036Z,96237.38
2019-02-18T10:57:54.724Z,96233.39
2019-02-18T11:00:42.852Z,96238.02
2019-02-18T11:03:30.387Z,96229.92
2019-02-18T11:06:18.440Z,96228.10
2019-02-18T11:09:09.515Z,96219.78
2019-02-18T11:11:57.489Z,96224.38
2019-02-18T11:14:44.989Z,96218.93
2019-02-18T11:17:38.827Z,96220.86
2019-02-18T11:20:22.830Z,96208.23
2019-02-18T11:23:11.049Z,96212.63
2019-02-18T11:25:58.987Z,96204.64
2019-02-18T11:28:46.846Z,96202.95
2019-02-18T11:31:34.967Z,96193.88
2019-02-18T11:34:23.098Z,96196.74
2019-02-18T11:37:11.067Z,96192.44
2019-02-18T11:39:58.734Z,96187.89
2019-02-18T11:42:47.000Z,96185.50
2019-02-18T11:45:35.306Z,96185.56
2019-02-18T11:48:23.137Z,96175.19
2019-02-18T11:51:11.209Z,96169.54
2019-02-18T11:53:59.410Z,96162.64
2019-02-18T11:56:47.692Z,96157.75
2019-02-18T11:59:35.227Z,96157.31
2019-02-18T12:02:22.843Z,96145.00
2019-02-18T12:05:12.266Z,96150.58
2019-02-18T12:08:00.174Z,96150.81
2019-02-18T12:10:48.405Z,96143.70
2019-02-18T12:13:36.966Z,96141.48
2019-02-18T12:16:25.094Z,96141.91
2019-02-18T12:19:13.182Z,96133.56
2019-02-18T12:22:01.614Z,96125.91
2019-02-18T12:24:49.783Z,96121.05
2019-02-18T12:27:37.887Z,96119.41
2019-02-18T12:30:25.444Z,96111.66
2019-02-18T12:33:14.521Z,96102.11
2019-02-18T12:36:02.630Z,96102.03
2019-02-18T12:38:50.440Z,96103.03
2019-02-18T12:41:47.974Z,96097.36
2019-02-18T12:44:27.913Z,96090.97
2019-02-18T12:47:16.223Z,96086.25
2019-02-18T12:50:04.616Z,96082.77
2019-02-18T12:52:52.606Z,96081.35
2019-02-18T12:55:40.913Z,96085.38
2019-02-18T12:58:28.979Z,96079.51
2019-02-18T13:01:17.197Z,96070.72
2019-02-18T13:04:05.022Z,96066.32
2019-02-18T13:06:53.346Z,96060.00
2019-02-18T13:09:41.608Z,96058.77
2019-02-18T13:12:29.539Z,96052.86
2019-02-18T13:15:17.533Z,96044.14
2019-02-18T13:18:05.828Z,96044.47
2019-02-18T13:20:54.116Z,96044.70
2019-02-18T13:23:42.072Z,96034.02
2019-02-18T13:26:29.675Z,96029.94
2019-02-18T13:29:17.631Z,96025.73
2019-02-18T13:32:05.625Z,96021.78
2019-02-18T13:34:53.624Z,96021.41
2019-02-18T13:37:41.854Z,96020.41
2019-02-18T13:40:29.623Z,96015.85
2019-02-18T13:43:17.541Z,96016.09
2019-02-18T13:46:05.326Z,96012.91
2019-02-18T13:48:52.966Z,96014.16
2019-02-18T13:51:41.178Z,96007.23
2019-02-18T13:54:28.774Z,96006.66
2019-02-18T13:57:16.661Z,96002.70
2019-02-18T14:00:04.786Z,96009.51
2019-02-18T14:02:52.991Z,96000.88
2019-02-18T14:05:41.399Z,96002.25
2019-02-18T14:08:29.367Z,96002.81
2019-02-18T14:11:17.636Z,95996.33
2019-02-18T14:14:05.596Z,96004.97
2019-02-18T14:16:53.592Z,96002.02
2019-02-18T14:19:41.467Z,96003.05
2019-02-18T14:22:29.472Z,96004.97
2019-02-18T14:25:17.502Z,96001.34
2019-02-18T14:28:05.797Z,96000.76
2019-02-18T14:30:53.735Z,95992.91
2019-02-18T14:33:41.829Z,95995.21
2019-02-18T14:36:30.077Z,95988.62
2019-02-18T14:39:24.175Z,95985.06
2019-02-18T14:42:12.344Z,95989.08
2019-02-18T14:45:00.964Z,95994.08
2019-02-18T14:47:48.854Z,95994.76
2019-02-18T14:50:36.713Z,95995.64
2019-02-18T14:53:24.975Z,95980.78
2019-02-18T14:56:15.081Z,95987.23
2019-02-18T14:59:03.020Z,95997.45
2019-02-18T15:01:51.122Z,95988.27
2019-02-18T15:04:39.187Z,95986.90
2019-02-18T15:07:27.162Z,95984.08
2019-02-18T15:10:15.871Z,95978.65
2019-02-18T15:13:03.895Z,95978.53
2019-02-18T15:15:52.025Z,95984.21
2019-02-18T15:18:40.046Z,95974.23
2019-02-18T15:21:28.365Z,95974.12
2019-02-18T15:24:16.615Z,95965.72
2019-02-18T15:27:04.783Z,95967.10
2019-02-18T15:29:53.132Z,95971.97
2019-02-18T15:32:41.995Z,95973.23
2019-02-18T15:35:29.798Z,95971.77
2019-02-18T15:38:17.812Z,95965.75
2019-02-18T15:41:05.804Z,95963.02
2019-02-18T15:43:53.737Z,95965.28
2019-02-18T15:46:44.590Z,95962.77
2019-02-18T15:49:33.815Z,95959.59
2019-02-18T15:52:22.018Z,95957.31
2019-02-18T15:55:10.518Z,95962.06
2019-02-18T15:57:58.366Z,95961.91
2019-02-18T16:00:46.745Z,95957.41
2019-02-18T16:03:34.800Z,95966.09
2019-02-18T16:06:22.935Z,95962.50
2019-02-18T16:09:10.875Z,95966.16
2019-02-18T16:11:59.162Z,95963.30
2019-02-18T16:14:47.390Z,95959.62
2019-02-18T16:17:35.266Z,95961.81
2019-02-18T16:20:23.452Z,95965.15
2019-02-18T16:23:11.709Z,95958.18
2019-02-18T16:25:59.806Z,95959.97
2019-02-18T16:28:47.826Z,95962.69
2019-02-18T16:31:35.892Z,95963.80
2019-02-18T16:34:24.142Z,95966.27
2019-02-18T16:37:12.367Z,95969.17
2019-02-18T16:40:00.392Z,95973.17
2019-02-18T16:42:48.160Z,95974.09
2019-02-18T16:45:36.797Z,95975.07
2019-02-18T16:48:25.631Z,95973.00
2019-02-18T16:51:13.979Z,95977.00
2019-02-18T16:54:02.105Z,95978.20
2019-02-18T16:56:49.645Z,95981.79
2019-02-18T16:59:37.817Z,95986.34
2019-02-18T17:02:25.691Z,95990.79
2019-02-18T17:05:13.920Z,95990.78
2019-02-18T17:08:01.553Z,95991.91
2019-02-18T17:10:49.782Z,95988.65
2019-02-18T17:13:37.859Z,95990.48
2019-02-18T17:16:26.038Z,95998.05
2019-02-18T17:19:13.971Z,95997.34
2019-02-18T17:22:02.000Z,95999.79
2019-02-18T17:24:49.517Z,96003.84
2019-02-18T17:27:37.433Z,96000.35
2019-02-18T17:30:25.639Z,96007.43
2019-02-18T17:33:13.660Z,96010.15
2019-02-18T17:36:01.439Z,96006.42
2019-02-18T17:38:49.049Z,96006.58
2019-02-18T17:41:36.938Z,96013.55
2019-02-18T17:44:25.406Z,96017.39
2019-02-18T17:47:13.334Z,96023.34
2019-02-18T17:50:01.302Z,96020.56
2019-02-18T17:52:49.126Z,96029.48
2019-02-18T17:55:37.465Z,96027.51
2019-02-18T17:58:25.435Z,96029.11
2019-02-18T18:01:13.068Z,96034.60
2019-02-18T18:04:01.000Z,96033.17
2019-02-18T18:06:49.099Z,96037.56
2019-02-18T18:09:36.971Z,96040.42
2019-02-18T18:12:24.756Z,96035.38
2019-02-18T18:15:13.111Z,96037.09
2019-02-18T18:18:01.265Z,96039.25
2019-02-18T18:20:49.191Z,96042.72
2019-02-18T18:23:37.447Z,96040.92
2019-02-18T18:26:25.547Z,96045.31
2019-02-18T18:29:13.502Z,96048.93
2019-02-18T18:32:01.579Z,96044.66
2019-02-18T18:34:49.487Z,96045.30
2019-02-18T18:37:37.509Z,96043.80
2019-02-18T18:40:25.651Z,96043.39
2019-02-18T18:43:13.615Z,96045.15
2019-02-18T18:46:01.797Z,96043.73
2019-02-18T18:48:50.085Z,96043.30
2019-02-18T18:51:38.314Z,96037.89
2019-02-18T18:54:26.891Z,96048.62
2019-02-18T18:57:15.248Z,96052.92
2019-02-18T19:00:04.895Z,96060.89
2019-02-18T19:02:52.863Z,96053.43
2019-02-18T19:05:41.467Z,96055.88
2019-02-18T19:08:29.895Z,96055.13
2019-02-18T19:11:17.983Z,96066.52
2019-02-18T19:14:06.064Z,96063.13
2019-02-18T19:16:54.166Z,96063.05
2019-02-18T19:19:42.226Z,96069.17
2019-02-18T19:22:30.072Z,96070.44
2019-02-18T19:25:18.489Z,96074.23
2019-02-18T19:28:06.767Z,96069.46
2019-02-18T19:30:54.990Z,96077.51
2019-02-18T19:33:42.881Z,96077.09
2019-02-18T19:36:32.329Z,96080.27
2019-02-18T19:39:20.407Z,96080.80
2019-02-18T19:42:08.361Z,96079.80
2019-02-18T19:44:56.274Z,96081.93
2019-02-18T19:47:44.181Z,96086.28
2019-02-18T19:50:31.809Z,96089.56
2019-02-18T19:53:20.071Z,96088.27
2019-02-18T19:56:08.028Z,96088.95
2019-02-18T19:58:56.208Z,96089.65
2019-02-18T20:01:44.857Z,96096.08
2019-02-18T20:04:32.848Z,96095.38
2019-02-18T20:07:20.996Z,96093.58
2019-02-18T20:10:09.465Z,96098.64
2019-02-18T20:12:57.250Z,96101.22
2019-02-18T20:15:47.560Z,96102.32
2019-02-18T20:18:35.930Z,96106.36
2019-02-18T20:21:24.303Z,96108.47
2019-02-18T20:24:12.360Z,96118.02
2019-02-18T20:27:00.883Z,96114.50
2019-02-18T20:29:49.108Z,96108.20
2019-02-18T20:32:37.485Z,96120.45
2019-02-18T20:35:25.579Z,96113.44
2019-02-18T20:38:13.225Z,96118.45
2019-02-18T20:41:01.369Z,96118.17
2019-02-18T20:43:49.449Z,96117.72
2019-02-18T20:46:37.296Z,96115.36
2019-02-18T20:49:25.125Z,96119.86
2019-02-18T20:52:13.607Z,96117.96
2019-02-18T20:55:01.788Z,96130.48
2019-02-18T20:57:49.835Z,96130.48
2019-02-18T21:00:37.878Z,96130.74
2019-02-18T21:03:26.133Z,96129.52
2019-02-18T21:06:14.132Z,96126.12
2019-02-18T21:09:02.003Z,96131.30
2019-02-18T21:11:49.951Z,96129.03
2019-02-18T21:14:38.153Z,96133.33
2019-02-18T21:17:26.816Z,96128.69
2019-02-18T21:20:15.316Z,96130.52
2019-02-18T21:23:02.859Z,96130.65
2019-02-18T21:25:51.127Z,96127.70
2019-02-18T21:28:39.355Z,96135.16
2019-02-18T21:31:27.422Z,96126.70
2019-02-18T21:34:15.710Z,96131.73
2019-02-18T21:37:03.369Z,96128.35
2019-02-18T21:39:51.248Z,96126.18
2019-02-18T21:42:40.941Z,96128.35
2019-02-18T21:45:29.261Z,96127.58
2019-02-18T21:48:17.751Z,96126.18
2019-02-18T21:51:05.951Z,96129.13
2019-02-18T21:53:53.757Z,96131.91
2019-02-18T21:56:41.633Z,96131.61
2019-02-18T21:59:29.965Z,96131.78
2019-02-18T22:02:17.907Z,96135.55
2019-02-18T22:05:06.045Z,96132.81
2019-02-18T22:07:54.176Z,96134.38
2019-02-18T22:10:42.111Z,96132.52
2019-02-18T22:13:30.262Z,96130.98
2019-02-18T22:16:17.834Z,96136.16
2019-02-18T22:19:05.854Z,96133.03
2019-02-18T22:21:53.927Z,96132.91
2019-02-18T22:24:41.868Z,96133.03
2019-02-18T22:27:29.951Z,96135.89
2019-02-18T22:30:18.075Z,96135.95
2019-02-18T22:33:05.959Z,96139.74
2019-02-18T22:35:54.326Z,96137.96
2019-02-18T22:38:41.905Z,96135.98
2019-02-18T22:41:30.100Z,96137.76
2019-02-18T22:44:17.949Z,96133.42
2019-02-18T22:47:06.095Z,96141.09
2019-02-18T22:49:53.934Z,96144.23
2019-02-18T22:52:41.705Z,96140.92
2019-02-18T22:55:30.087Z,96148.00
2019-02-18T22:58:18.205Z,96143.44
2019-02-18T23:01:06.773Z,96151.50
2019-02-18T23:03:54.397Z,96155.49
2019-02-18T23:06:42.400Z,96154.28
2019-02-18T23:09:30.070Z,96151.47
2019-02-18T23:12:17.989Z,96161.57
2019-02-18T23:15:06.335Z,96159.86
2019-02-18T23:17:54.221Z,96152.43
2019-02-18T23:20:42.069Z,96157.30
2019-02-18T23:23:30.598Z,96158.29
2019-02-18T23:26:19.073Z,96155.89
2019-02-18T23:29:06.585Z,96161.69
2019-02-18T23:31:54.650Z,96165.42
2019-02-18T23:34:42.518Z,96157.66
2019-02-18T23:37:30.805Z,96164.34
2019-02-18T23:40:18.837Z,96168.95
2019-02-18T23:43:06.687Z,96171.12
2019-02-18T23:45:54.548Z,96169.22
2019-02-18T23:48:42.334Z,96168.74
2019-02-18T23:51:29.939Z,96180.76
2019-02-18T23:54:17.816Z,96179.97
2019-02-18T23:57:05.623Z,96178.77
2019-02-18T23:59:53.663Z,96180.46
